FHA6AH EDDL-LIPZ
Flight info
| Callsign | FHA6AH |
|---|---|
| Flight time | 1h 16m |
| Altitude | 37000 |
| Route | DODEN7Z/05R DODEN Y852 TUSUK DCT ULNOK L607 ABUKA DCT BATUB M738 TIRUL Y740 NATAG DCT LORLO DCT UNTAD DCT ADOSA L612 ALBET ALBET2E |
| Aircraft | B738/M-SDE2E3FGHIRWXY/LB1 |
Departure
| Time | 2026-05-06 11:57 |
|---|---|
| Airport | Düsseldorf Airport (EDDL) |
Arrival
| Time | 2026-05-06 13:14 |
|---|---|
| Airport | Venice Marco Polo Airport (LIPZ) |
| Time | Latitude | Longitude | Altitude | Speed | Heading |
|---|---|---|---|---|---|
| 2026-05-06 11:23 | 51.27562 | 6.75982 | 129 ft | 0 kts | 63° |
| 2026-05-06 11:52 | 51.27562 | 6.75983 | 129 ft | 0 kts | 63° |
| 2026-05-06 11:52 | 51.27567 | 6.76000 | 130 ft | 3 kts | 63° |
| 2026-05-06 11:52 | 51.27575 | 6.76025 | 130 ft | 2 kts | 63° |
| 2026-05-06 11:52 | 51.27585 | 6.76047 | 126 ft | 2 kts | 44° |
| 2026-05-06 11:53 | 51.27600 | 6.76054 | 127 ft | 2 kts | 2° |
| 2026-05-06 11:53 | 51.27615 | 6.76050 | 130 ft | 2 kts | 352° |
| 2026-05-06 11:53 | 51.27631 | 6.76047 | 128 ft | 2 kts | 351° |
| 2026-05-06 11:53 | 51.27654 | 6.76042 | 129 ft | 5 kts | 354° |
| 2026-05-06 11:54 | 51.27704 | 6.76041 | 125 ft | 9 kts | 1° |
| 2026-05-06 11:54 | 51.27772 | 6.76042 | 128 ft | 11 kts | 0° |
| 2026-05-06 11:54 | 51.27839 | 6.76005 | 128 ft | 9 kts | 297° |
| 2026-05-06 11:54 | 51.27844 | 6.75911 | 128 ft | 8 kts | 271° |
| 2026-05-06 11:55 | 51.27852 | 6.75819 | 128 ft | 8 kts | 282° |
| 2026-05-06 11:55 | 51.27860 | 6.75725 | 127 ft | 9 kts | 273° |
| 2026-05-06 11:55 | 51.27874 | 6.75630 | 125 ft | 9 kts | 303° |
| 2026-05-06 11:55 | 51.27925 | 6.75580 | 123 ft | 9 kts | 334° |
| 2026-05-06 11:56 | 51.27980 | 6.75538 | 127 ft | 9 kts | 334° |
| 2026-05-06 11:56 | 51.28040 | 6.75495 | 124 ft | 10 kts | 344° |
| 2026-05-06 11:56 | 51.28107 | 6.75508 | 125 ft | 10 kts | 39° |
| 2026-05-06 11:56 | 51.28151 | 6.75599 | 125 ft | 17 kts | 52° |
| 2026-05-06 11:57 | 51.28374 | 6.76068 | 126 ft | 89 kts | 52° |
| 2026-05-06 11:57 | 51.28886 | 6.77129 | 128 ft | 149 kts | 52° |
| 2026-05-06 11:57 | 51.29550 | 6.78598 | 575 ft | 169 kts | 55° |
| 2026-05-06 11:57 | 51.30216 | 6.80128 | 1561 ft | 163 kts | 51° |
| 2026-05-06 11:58 | 51.30954 | 6.81632 | 1933 ft | 187 kts | 50° |
| 2026-05-06 11:58 | 51.31789 | 6.83349 | 2213 ft | 205 kts | 51° |
| 2026-05-06 11:58 | 51.32691 | 6.85232 | 2429 ft | 222 kts | 51° |
| 2026-05-06 11:58 | 51.33664 | 6.87297 | 2666 ft | 243 kts | 53° |
| 2026-05-06 11:59 | 51.34667 | 6.89542 | 3252 ft | 250 kts | 56° |
| 2026-05-06 11:59 | 51.35254 | 6.92204 | 3864 ft | 261 kts | 84° |
| 2026-05-06 11:59 | 51.35127 | 6.95089 | 4571 ft | 266 kts | 98° |
| 2026-05-06 11:59 | 51.34808 | 6.98038 | 5281 ft | 269 kts | 104° |
| 2026-05-06 12:00 | 51.33911 | 7.00649 | 6030 ft | 270 kts | 135° |
| 2026-05-06 12:00 | 51.32535 | 7.02711 | 6833 ft | 272 kts | 139° |
| 2026-05-06 12:00 | 51.31132 | 7.04719 | 7632 ft | 275 kts | 139° |
| 2026-05-06 12:00 | 51.29689 | 7.06790 | 8502 ft | 280 kts | 140° |
| 2026-05-06 12:01 | 51.28246 | 7.08886 | 9294 ft | 283 kts | 140° |
| 2026-05-06 12:01 | 51.26792 | 7.11023 | 10113 ft | 286 kts | 139° |
| 2026-05-06 12:01 | 51.25312 | 7.13211 | 10739 ft | 292 kts | 139° |
| 2026-05-06 12:01 | 51.23775 | 7.15491 | 11034 ft | 313 kts | 139° |
| 2026-05-06 12:02 | 51.22141 | 7.17922 | 11265 ft | 334 kts | 139° |
| 2026-05-06 12:02 | 51.20512 | 7.20353 | 11803 ft | 342 kts | 139° |
| 2026-05-06 12:02 | 51.19354 | 7.22084 | 12274 ft | 345 kts | 139° |
| 2026-05-06 12:02 | 51.17361 | 7.25063 | 13121 ft | 349 kts | 139° |
| 2026-05-06 12:03 | 51.15566 | 7.27744 | 13866 ft | 354 kts | 139° |
| 2026-05-06 12:03 | 51.13771 | 7.30422 | 14566 ft | 358 kts | 139° |
| 2026-05-06 12:03 | 51.11941 | 7.33144 | 15317 ft | 361 kts | 140° |
| 2026-05-06 12:03 | 51.10092 | 7.35890 | 16059 ft | 364 kts | 140° |
| 2026-05-06 12:04 | 51.08246 | 7.38639 | 16793 ft | 368 kts | 140° |
| 2026-05-06 12:04 | 51.06362 | 7.41446 | 17521 ft | 372 kts | 140° |
| 2026-05-06 12:04 | 51.04461 | 7.44280 | 18210 ft | 376 kts | 140° |
| 2026-05-06 12:04 | 51.02533 | 7.47150 | 18834 ft | 380 kts | 140° |
| 2026-05-06 12:05 | 51.00614 | 7.50003 | 19454 ft | 383 kts | 139° |
| 2026-05-06 12:05 | 50.98658 | 7.52909 | 20078 ft | 386 kts | 139° |
| 2026-05-06 12:05 | 50.96680 | 7.55844 | 20722 ft | 389 kts | 139° |
| 2026-05-06 12:05 | 50.94693 | 7.58733 | 21351 ft | 392 kts | 142° |
| 2026-05-06 12:06 | 50.92409 | 7.61130 | 21953 ft | 394 kts | 154° |
| 2026-05-06 12:06 | 50.89950 | 7.63004 | 22582 ft | 396 kts | 156° |
| 2026-05-06 12:06 | 50.87516 | 7.64762 | 23131 ft | 400 kts | 156° |
| 2026-05-06 12:06 | 50.84959 | 7.66595 | 23620 ft | 403 kts | 156° |
| 2026-05-06 12:07 | 50.82426 | 7.68426 | 24097 ft | 406 kts | 156° |
| 2026-05-06 12:07 | 50.79844 | 7.70312 | 24580 ft | 408 kts | 156° |
| 2026-05-06 12:07 | 50.77256 | 7.72217 | 25048 ft | 411 kts | 156° |
| 2026-05-06 12:07 | 50.74685 | 7.74118 | 25524 ft | 413 kts | 156° |
| 2026-05-06 12:08 | 50.72072 | 7.76052 | 25988 ft | 416 kts | 156° |
| 2026-05-06 12:08 | 50.69430 | 7.78007 | 26429 ft | 419 kts | 156° |
| 2026-05-06 12:08 | 50.66768 | 7.79975 | 26883 ft | 421 kts | 156° |
| 2026-05-06 12:08 | 50.64131 | 7.81921 | 27312 ft | 423 kts | 156° |
| 2026-05-06 12:09 | 50.61442 | 7.83904 | 27725 ft | 426 kts | 157° |
| 2026-05-06 12:09 | 50.58780 | 7.85863 | 28142 ft | 428 kts | 157° |
| 2026-05-06 12:09 | 50.56065 | 7.87859 | 28547 ft | 430 kts | 157° |
| 2026-05-06 12:09 | 50.53332 | 7.89867 | 28942 ft | 433 kts | 157° |
| 2026-05-06 12:10 | 50.50623 | 7.91878 | 29319 ft | 435 kts | 157° |
| 2026-05-06 12:10 | 50.47871 | 7.93935 | 29705 ft | 437 kts | 157° |
| 2026-05-06 12:10 | 50.45110 | 7.96001 | 30068 ft | 439 kts | 157° |
| 2026-05-06 12:10 | 50.42349 | 7.98065 | 30510 ft | 437 kts | 157° |
| 2026-05-06 12:11 | 50.39638 | 8.00089 | 31013 ft | 434 kts | 158° |
| 2026-05-06 12:11 | 50.36914 | 8.02117 | 31490 ft | 431 kts | 158° |
| 2026-05-06 12:11 | 50.34232 | 8.04109 | 31877 ft | 431 kts | 158° |
| 2026-05-06 12:11 | 50.31517 | 8.06122 | 32246 ft | 430 kts | 158° |
| 2026-05-06 12:12 | 50.28801 | 8.08133 | 32643 ft | 429 kts | 158° |
| 2026-05-06 12:12 | 50.26129 | 8.10109 | 33078 ft | 427 kts | 158° |
| 2026-05-06 12:12 | 50.23446 | 8.12092 | 33487 ft | 426 kts | 158° |
| 2026-05-06 12:12 | 50.20758 | 8.14076 | 33863 ft | 425 kts | 158° |
| 2026-05-06 12:13 | 50.18110 | 8.16028 | 34159 ft | 425 kts | 158° |
| 2026-05-06 12:13 | 50.15428 | 8.18001 | 34429 ft | 425 kts | 158° |
| 2026-05-06 12:13 | 50.12745 | 8.19972 | 34715 ft | 425 kts | 158° |
| 2026-05-06 12:13 | 50.10061 | 8.21941 | 34996 ft | 425 kts | 158° |
| 2026-05-06 12:14 | 50.07382 | 8.23904 | 35271 ft | 425 kts | 158° |
| 2026-05-06 12:14 | 50.05603 | 8.25207 | 35441 ft | 425 kts | 158° |
| 2026-05-06 12:14 | 50.02056 | 8.27801 | 35790 ft | 425 kts | 158° |
| 2026-05-06 12:14 | 49.99372 | 8.29762 | 36083 ft | 425 kts | 158° |
| 2026-05-06 12:15 | 49.97597 | 8.31057 | 36274 ft | 425 kts | 158° |
| 2026-05-06 12:15 | 49.94041 | 8.33649 | 36634 ft | 425 kts | 158° |
| 2026-05-06 12:15 | 49.92233 | 8.34966 | 36778 ft | 425 kts | 158° |
| 2026-05-06 12:15 | 49.89540 | 8.36925 | 36762 ft | 429 kts | 158° |
| 2026-05-06 12:16 | 49.84150 | 8.40838 | 36767 ft | 428 kts | 158° |
| 2026-05-06 12:16 | 49.78799 | 8.44714 | 36759 ft | 421 kts | 158° |
| 2026-05-06 12:17 | 49.73516 | 8.48529 | 36785 ft | 420 kts | 158° |
| 2026-05-06 12:17 | 49.68239 | 8.52331 | 36787 ft | 419 kts | 158° |
| 2026-05-06 12:18 | 49.62961 | 8.56122 | 36786 ft | 419 kts | 158° |
| 2026-05-06 12:18 | 49.57676 | 8.59911 | 36803 ft | 419 kts | 158° |
| 2026-05-06 12:19 | 49.52368 | 8.63710 | 36802 ft | 421 kts | 158° |
| 2026-05-06 12:19 | 49.47069 | 8.67492 | 36804 ft | 422 kts | 158° |
| 2026-05-06 12:20 | 49.41686 | 8.71077 | 36797 ft | 424 kts | 161° |
| 2026-05-06 12:20 | 49.36242 | 8.74435 | 36792 ft | 425 kts | 161° |
| 2026-05-06 12:21 | 49.30735 | 8.77833 | 36795 ft | 427 kts | 161° |
| 2026-05-06 12:21 | 49.25213 | 8.81271 | 36797 ft | 429 kts | 161° |
| 2026-05-06 12:22 | 49.19693 | 8.84717 | 36797 ft | 430 kts | 161° |
| 2026-05-06 12:22 | 49.14171 | 8.88160 | 36790 ft | 430 kts | 161° |
| 2026-05-06 12:23 | 49.08646 | 8.91598 | 36798 ft | 430 kts | 161° |
| 2026-05-06 12:23 | 49.03106 | 8.95035 | 36791 ft | 429 kts | 161° |
| 2026-05-06 12:24 | 48.97596 | 8.98445 | 36797 ft | 427 kts | 162° |
| 2026-05-06 12:24 | 48.92096 | 9.01841 | 36793 ft | 426 kts | 162° |
| 2026-05-06 12:25 | 48.86625 | 9.05211 | 36786 ft | 424 kts | 162° |
| 2026-05-06 12:25 | 48.81157 | 9.08570 | 36781 ft | 423 kts | 162° |
| 2026-05-06 12:26 | 48.75794 | 9.11858 | 36771 ft | 421 kts | 162° |
| 2026-05-06 12:26 | 48.70797 | 9.14914 | 36772 ft | 419 kts | 162° |
| 2026-05-06 12:27 | 48.65406 | 9.18204 | 36768 ft | 417 kts | 162° |
| 2026-05-06 12:27 | 48.60028 | 9.21478 | 36769 ft | 416 kts | 162° |
| 2026-05-06 12:28 | 48.54679 | 9.24727 | 36784 ft | 415 kts | 162° |
| 2026-05-06 12:28 | 48.49357 | 9.27953 | 36778 ft | 414 kts | 162° |
| 2026-05-06 12:29 | 48.44006 | 9.31189 | 36792 ft | 414 kts | 162° |
| 2026-05-06 12:29 | 48.38650 | 9.34418 | 36789 ft | 416 kts | 162° |
| 2026-05-06 12:30 | 48.33294 | 9.37643 | 36794 ft | 415 kts | 162° |
| 2026-05-06 12:30 | 48.27917 | 9.40873 | 36803 ft | 415 kts | 162° |
| 2026-05-06 12:31 | 48.22580 | 9.44072 | 36794 ft | 415 kts | 162° |
| 2026-05-06 12:31 | 48.17218 | 9.47278 | 36796 ft | 415 kts | 162° |
| 2026-05-06 12:32 | 48.11834 | 9.50490 | 36790 ft | 415 kts | 162° |
| 2026-05-06 12:32 | 48.07356 | 9.53157 | 36794 ft | 415 kts | 162° |
| 2026-05-06 12:33 | 48.02399 | 9.56202 | 36789 ft | 418 kts | 158° |
| 2026-05-06 12:33 | 47.97494 | 9.60988 | 36803 ft | 424 kts | 149° |
| 2026-05-06 12:34 | 47.92731 | 9.66228 | 36791 ft | 425 kts | 148° |
| 2026-05-06 12:34 | 47.89682 | 9.69565 | 36796 ft | 425 kts | 149° |
| 2026-05-06 12:35 | 47.87514 | 9.71919 | 36788 ft | 426 kts | 149° |
| 2026-05-06 12:35 | 47.82719 | 9.77091 | 36796 ft | 426 kts | 149° |
| 2026-05-06 12:36 | 47.77910 | 9.82250 | 36798 ft | 426 kts | 149° |
| 2026-05-06 12:36 | 47.73083 | 9.87415 | 36795 ft | 426 kts | 149° |
| 2026-05-06 12:37 | 47.68275 | 9.92550 | 36798 ft | 426 kts | 149° |
| 2026-05-06 12:37 | 47.63457 | 9.97683 | 36795 ft | 427 kts | 150° |
| 2026-05-06 12:38 | 47.58644 | 10.02800 | 36795 ft | 427 kts | 150° |
| 2026-05-06 12:38 | 47.53816 | 10.07922 | 36772 ft | 427 kts | 150° |
| 2026-05-06 12:39 | 47.49005 | 10.13015 | 36790 ft | 425 kts | 150° |
| 2026-05-06 12:39 | 47.44221 | 10.18063 | 36787 ft | 423 kts | 150° |
| 2026-05-06 12:40 | 47.39275 | 10.22706 | 36769 ft | 420 kts | 154° |
| 2026-05-06 12:40 | 47.34283 | 10.27178 | 36775 ft | 421 kts | 154° |
| 2026-05-06 12:41 | 47.29290 | 10.31710 | 36776 ft | 421 kts | 154° |
| 2026-05-06 12:41 | 47.24291 | 10.36216 | 36776 ft | 422 kts | 154° |
| 2026-05-06 12:42 | 47.19304 | 10.40708 | 36774 ft | 421 kts | 154° |
| 2026-05-06 12:42 | 47.14279 | 10.45217 | 36785 ft | 422 kts | 154° |
| 2026-05-06 12:43 | 47.09290 | 10.49688 | 36815 ft | 418 kts | 154° |
| 2026-05-06 12:43 | 47.04189 | 10.53701 | 36394 ft | 415 kts | 167° |
| 2026-05-06 12:44 | 47.01447 | 10.54958 | 36038 ft | 407 kts | 168° |
| 2026-05-06 12:44 | 46.98743 | 10.56132 | 35654 ft | 401 kts | 170° |
| 2026-05-06 12:44 | 46.96111 | 10.57279 | 35277 ft | 396 kts | 170° |
| 2026-05-06 12:44 | 46.93475 | 10.58445 | 34917 ft | 392 kts | 170° |
| 2026-05-06 12:45 | 46.90878 | 10.59610 | 34548 ft | 388 kts | 170° |
| 2026-05-06 12:45 | 46.88308 | 10.60770 | 34207 ft | 384 kts | 171° |
| 2026-05-06 12:45 | 46.83305 | 10.63029 | 33813 ft | 368 kts | 172° |
| 2026-05-06 12:46 | 46.80877 | 10.64119 | 33460 ft | 362 kts | 172° |
| 2026-05-06 12:46 | 46.78454 | 10.65200 | 32998 ft | 361 kts | 172° |
| 2026-05-06 12:46 | 46.76080 | 10.66257 | 32555 ft | 360 kts | 172° |
| 2026-05-06 12:46 | 46.73682 | 10.67328 | 32137 ft | 358 kts | 172° |
| 2026-05-06 12:47 | 46.71284 | 10.68317 | 31772 ft | 352 kts | 175° |
| 2026-05-06 12:47 | 46.68934 | 10.69121 | 31421 ft | 348 kts | 176° |
| 2026-05-06 12:47 | 46.66567 | 10.69886 | 31086 ft | 345 kts | 176° |
| 2026-05-06 12:47 | 46.64252 | 10.70624 | 30724 ft | 341 kts | 176° |
| 2026-05-06 12:48 | 46.61933 | 10.71367 | 30383 ft | 338 kts | 176° |
| 2026-05-06 12:48 | 46.59667 | 10.72095 | 30050 ft | 336 kts | 176° |
| 2026-05-06 12:48 | 46.57370 | 10.72835 | 29677 ft | 336 kts | 176° |
| 2026-05-06 12:48 | 46.55072 | 10.73577 | 29273 ft | 337 kts | 176° |
| 2026-05-06 12:49 | 46.52814 | 10.74309 | 28902 ft | 336 kts | 176° |
| 2026-05-06 12:49 | 46.50522 | 10.75057 | 28528 ft | 335 kts | 176° |
| 2026-05-06 12:49 | 46.48273 | 10.75789 | 28140 ft | 334 kts | 176° |
| 2026-05-06 12:49 | 46.46003 | 10.76528 | 27805 ft | 333 kts | 176° |
| 2026-05-06 12:50 | 46.43761 | 10.77255 | 27432 ft | 333 kts | 175° |
| 2026-05-06 12:50 | 46.41502 | 10.77988 | 27076 ft | 333 kts | 175° |
| 2026-05-06 12:50 | 46.39228 | 10.78726 | 26698 ft | 331 kts | 175° |
| 2026-05-06 12:50 | 46.37007 | 10.79449 | 26371 ft | 327 kts | 175° |
| 2026-05-06 12:51 | 46.34777 | 10.80172 | 26056 ft | 325 kts | 175° |
| 2026-05-06 12:51 | 46.32591 | 10.80880 | 25733 ft | 325 kts | 175° |
| 2026-05-06 12:51 | 46.30372 | 10.81597 | 25381 ft | 323 kts | 175° |
| 2026-05-06 12:51 | 46.28210 | 10.82296 | 25082 ft | 319 kts | 175° |
| 2026-05-06 12:52 | 46.26046 | 10.82995 | 24774 ft | 317 kts | 174° |
| 2026-05-06 12:52 | 46.23921 | 10.83682 | 24462 ft | 314 kts | 175° |
| 2026-05-06 12:52 | 46.21791 | 10.84369 | 24158 ft | 312 kts | 175° |
| 2026-05-06 12:52 | 46.19671 | 10.85050 | 23849 ft | 312 kts | 174° |
| 2026-05-06 12:53 | 46.17557 | 10.85726 | 23519 ft | 310 kts | 175° |
| 2026-05-06 12:53 | 46.15458 | 10.86397 | 23180 ft | 305 kts | 174° |
| 2026-05-06 12:53 | 46.13407 | 10.87051 | 22825 ft | 304 kts | 174° |
| 2026-05-06 12:53 | 46.11336 | 10.87715 | 22470 ft | 302 kts | 174° |
| 2026-05-06 12:54 | 46.09301 | 10.88368 | 22115 ft | 300 kts | 174° |
| 2026-05-06 12:54 | 46.07266 | 10.89015 | 21765 ft | 298 kts | 174° |
| 2026-05-06 12:54 | 46.05235 | 10.89663 | 21435 ft | 297 kts | 174° |
| 2026-05-06 12:54 | 46.03231 | 10.90303 | 21093 ft | 297 kts | 174° |
| 2026-05-06 12:55 | 46.01211 | 10.90947 | 20759 ft | 297 kts | 173° |
| 2026-05-06 12:55 | 45.99215 | 10.91583 | 20448 ft | 296 kts | 173° |
| 2026-05-06 12:55 | 45.97201 | 10.92225 | 20194 ft | 293 kts | 173° |
| 2026-05-06 12:55 | 45.95232 | 10.92851 | 19951 ft | 292 kts | 173° |
| 2026-05-06 12:56 | 45.93237 | 10.93485 | 19698 ft | 291 kts | 173° |
| 2026-05-06 12:56 | 45.91276 | 10.94108 | 19461 ft | 291 kts | 173° |
| 2026-05-06 12:56 | 45.89296 | 10.94736 | 19202 ft | 290 kts | 173° |
| 2026-05-06 12:56 | 45.87308 | 10.95366 | 18983 ft | 291 kts | 173° |
| 2026-05-06 12:57 | 45.85347 | 10.95986 | 18750 ft | 294 kts | 173° |
| 2026-05-06 12:57 | 45.83330 | 10.96626 | 18487 ft | 295 kts | 173° |
| 2026-05-06 12:57 | 45.81321 | 10.97262 | 18270 ft | 294 kts | 173° |
| 2026-05-06 12:57 | 45.79341 | 10.97888 | 18001 ft | 294 kts | 173° |
| 2026-05-06 12:58 | 45.77338 | 10.98522 | 17737 ft | 294 kts | 173° |
| 2026-05-06 12:58 | 45.75358 | 10.99147 | 17480 ft | 294 kts | 173° |
| 2026-05-06 12:58 | 45.73349 | 10.99780 | 17220 ft | 294 kts | 172° |
| 2026-05-06 12:58 | 45.71348 | 11.00411 | 16945 ft | 293 kts | 172° |
| 2026-05-06 12:59 | 45.69373 | 11.01033 | 16696 ft | 293 kts | 172° |
| 2026-05-06 12:59 | 45.67371 | 11.01664 | 16418 ft | 292 kts | 172° |
| 2026-05-06 12:59 | 45.65449 | 11.02565 | 16151 ft | 298 kts | 157° |
| 2026-05-06 12:59 | 45.63756 | 11.04329 | 15896 ft | 303 kts | 141° |
| 2026-05-06 13:00 | 45.62486 | 11.06779 | 15633 ft | 309 kts | 125° |
| 2026-05-06 13:00 | 45.61585 | 11.09565 | 15374 ft | 311 kts | 119° |
| 2026-05-06 13:00 | 45.60801 | 11.12418 | 15006 ft | 312 kts | 117° |
| 2026-05-06 13:00 | 45.60039 | 11.15321 | 14640 ft | 310 kts | 117° |
| 2026-05-06 13:01 | 45.59282 | 11.18207 | 14255 ft | 310 kts | 117° |
| 2026-05-06 13:01 | 45.58529 | 11.21050 | 13932 ft | 309 kts | 117° |
| 2026-05-06 13:01 | 45.57760 | 11.23917 | 13563 ft | 309 kts | 117° |
| 2026-05-06 13:01 | 45.56991 | 11.26764 | 13145 ft | 309 kts | 117° |
| 2026-05-06 13:02 | 45.56239 | 11.29531 | 12787 ft | 309 kts | 117° |
| 2026-05-06 13:02 | 45.55498 | 11.32245 | 12377 ft | 308 kts | 117° |
| 2026-05-06 13:02 | 45.54721 | 11.35084 | 12034 ft | 308 kts | 117° |
| 2026-05-06 13:02 | 45.53944 | 11.37918 | 11652 ft | 309 kts | 117° |
| 2026-05-06 13:03 | 45.53158 | 11.40775 | 11454 ft | 304 kts | 117° |
| 2026-05-06 13:03 | 45.52401 | 11.43538 | 11332 ft | 295 kts | 117° |
| 2026-05-06 13:03 | 45.51649 | 11.46265 | 10905 ft | 299 kts | 117° |
| 2026-05-06 13:03 | 45.50885 | 11.49029 | 10619 ft | 297 kts | 116° |
| 2026-05-06 13:04 | 45.50136 | 11.51737 | 10367 ft | 296 kts | 116° |
| 2026-05-06 13:04 | 45.49382 | 11.54459 | 10126 ft | 295 kts | 116° |
| 2026-05-06 13:04 | 45.48630 | 11.57168 | 9924 ft | 295 kts | 116° |
| 2026-05-06 13:04 | 45.47872 | 11.59899 | 9569 ft | 297 kts | 116° |
| 2026-05-06 13:05 | 45.47107 | 11.62651 | 9205 ft | 297 kts | 116° |
| 2026-05-06 13:05 | 45.46344 | 11.65397 | 8835 ft | 297 kts | 116° |
| 2026-05-06 13:05 | 45.45590 | 11.68106 | 8546 ft | 295 kts | 116° |
| 2026-05-06 13:05 | 45.44835 | 11.70818 | 8246 ft | 292 kts | 116° |
| 2026-05-06 13:06 | 45.44095 | 11.73469 | 7950 ft | 291 kts | 116° |
| 2026-05-06 13:06 | 45.43346 | 11.76151 | 7636 ft | 289 kts | 116° |
| 2026-05-06 13:06 | 45.42613 | 11.78775 | 7342 ft | 287 kts | 115° |
| 2026-05-06 13:06 | 45.41873 | 11.81417 | 7030 ft | 286 kts | 115° |
| 2026-05-06 13:07 | 45.41227 | 11.83724 | 6775 ft | 285 kts | 115° |
| 2026-05-06 13:07 | 45.40493 | 11.86338 | 6546 ft | 283 kts | 115° |
| 2026-05-06 13:07 | 45.39773 | 11.88904 | 6283 ft | 281 kts | 115° |
| 2026-05-06 13:07 | 45.39045 | 11.91495 | 6015 ft | 280 kts | 115° |
| 2026-05-06 13:08 | 45.38319 | 11.94075 | 5790 ft | 278 kts | 115° |
| 2026-05-06 13:08 | 45.37607 | 11.96602 | 5554 ft | 277 kts | 114° |
| 2026-05-06 13:08 | 45.36899 | 11.99115 | 5310 ft | 273 kts | 115° |
| 2026-05-06 13:08 | 45.36492 | 12.01699 | 5048 ft | 267 kts | 91° |
| 2026-05-06 13:09 | 45.36842 | 12.04245 | 4833 ft | 255 kts | 76° |
| 2026-05-06 13:09 | 45.37350 | 12.06617 | 4515 ft | 246 kts | 74° |
| 2026-05-06 13:09 | 45.37621 | 12.07839 | 4334 ft | 242 kts | 74° |
| 2026-05-06 13:09 | 45.38133 | 12.10124 | 3913 ft | 239 kts | 74° |
| 2026-05-06 13:10 | 45.38632 | 12.12335 | 3520 ft | 236 kts | 74° |
| 2026-05-06 13:10 | 45.39132 | 12.14551 | 3140 ft | 233 kts | 74° |
| 2026-05-06 13:10 | 45.39632 | 12.16763 | 2796 ft | 236 kts | 74° |
| 2026-05-06 13:10 | 45.40121 | 12.18904 | 2679 ft | 223 kts | 74° |
| 2026-05-06 13:11 | 45.40439 | 12.20284 | 2595 ft | 216 kts | 74° |
| 2026-05-06 13:11 | 45.41186 | 12.22838 | 2238 ft | 209 kts | 51° |
| 2026-05-06 13:11 | 45.42154 | 12.24301 | 1975 ft | 203 kts | 47° |
| 2026-05-06 13:11 | 45.43150 | 12.25683 | 1716 ft | 195 kts | 44° |
| 2026-05-06 13:12 | 45.43808 | 12.26536 | 1539 ft | 189 kts | 45° |
| 2026-05-06 13:12 | 45.45042 | 12.28125 | 1194 ft | 172 kts | 45° |
| 2026-05-06 13:12 | 45.45618 | 12.28871 | 1039 ft | 165 kts | 44° |
| 2026-05-06 13:12 | 45.46725 | 12.30305 | 778 ft | 158 kts | 44° |
| 2026-05-06 13:13 | 45.47112 | 12.30797 | 662 ft | 156 kts | 45° |
| 2026-05-06 13:13 | 45.48180 | 12.32169 | 395 ft | 156 kts | 46° |
| 2026-05-06 13:13 | 45.48720 | 12.32870 | 236 ft | 153 kts | 46° |
| 2026-05-06 13:13 | 45.49494 | 12.33873 | 43 ft | 149 kts | 46° |
| 2026-05-06 13:14 | 45.50184 | 12.34765 | 14 ft | 106 kts | 42° |
| 2026-05-06 13:14 | 45.50559 | 12.35248 | 12 ft | 37 kts | 39° |
| 2026-05-06 13:14 | 45.50701 | 12.35382 | 16 ft | 22 kts | 25° |
| 2026-05-06 13:14 | 45.50828 | 12.35434 | 15 ft | 11 kts | 12° |
| 2026-05-06 13:15 | 45.50876 | 12.35449 | 15 ft | 3 kts | 12° |
| 2026-05-06 13:15 | 45.50895 | 12.35454 | 15 ft | 3 kts | 10° |
| 2026-05-06 13:15 | 45.50923 | 12.35457 | 15 ft | 6 kts | 1° |
| 2026-05-06 13:15 | 45.50975 | 12.35422 | 16 ft | 10 kts | 303° |
| 2026-05-06 13:16 | 45.50975 | 12.35322 | 17 ft | 12 kts | 256° |
| 2026-05-06 13:16 | 45.50940 | 12.35191 | 16 ft | 16 kts | 234° |
| 2026-05-06 13:16 | 45.50859 | 12.35079 | 15 ft | 16 kts | 222° |
| 2026-05-06 13:16 | 45.50778 | 12.34975 | 15 ft | 16 kts | 222° |
| 2026-05-06 13:17 | 45.50691 | 12.34862 | 15 ft | 18 kts | 222° |
| 2026-05-06 13:17 | 45.50611 | 12.34744 | 15 ft | 14 kts | 246° |
| 2026-05-06 13:17 | 45.50603 | 12.34610 | 15 ft | 13 kts | 269° |
| 2026-05-06 13:17 | 45.50599 | 12.34480 | 15 ft | 13 kts | 268° |
| 2026-05-06 13:18 | 45.50579 | 12.34400 | 15 ft | 7 kts | 224° |
| 2026-05-06 13:18 | 45.50550 | 12.34344 | 15 ft | 7 kts | 261° |
| 2026-05-06 13:18 | 45.50553 | 12.34273 | 15 ft | 7 kts | 268° |
| 2026-05-06 13:18 | 45.50552 | 12.34225 | 15 ft | 2 kts | 267° |
| 2026-05-06 13:19 | 45.50552 | 12.34224 | 15 ft | 0 kts | 267° |